Time;durP1;ratioP1;P1;durP2;ratioP2;P2;SDS_P1;SDS_P2;PMS_P1;PMS_P2;Temp;Humidity;BMP_temperature;BMP_pressure;BME280_temperature;BME280_humidity;BME280_pressure;Samples;Min_cycle;Max_cycle;Signal;HPM_P1;HPM_P2
2021/01/02 00:00:04;;;;;;;55.47;28.60;;;;;;;;;;5072477;28;20203;-84
2021/01/02 00:02:53;;;;;;;65.17;31.47;;;;;;;;;;5073186;28;20179;-84
2021/01/02 00:05:21;;;;;;;70.10;32.63;;;;;;;;;;5031813;28;20538;-84
2021/01/02 00:07:46;;;;;;;68.57;32.77;;;;;;;;;;5032937;28;20199;-84
2021/01/02 00:10:14;;;;;;;73.17;33.93;;;;;;;;;;5032585;28;20216;-84
2021/01/02 00:12:59;;;;;;;72.97;34.00;;;;;;;;;;5031278;28;20296;-84
2021/01/02 00:15:47;;;;;;;75.17;37.70;;;;;;;;;;5032661;28;20263;-84
2021/01/02 00:18:32;;;;;;;71.83;33.67;;;;;;;;;;5026491;28;20655;-84
2021/01/02 00:21:15;;;;;;;69.53;31.97;;;;;;;;;;5032711;28;20245;-84
2021/01/02 00:23:53;;;;;;;73.40;32.53;;;;;;;;;;5032351;28;20184;-84
2021/01/02 00:26:38;;;;;;;70.03;32.53;;;;;;;;;;5032309;28;20168;-84
2021/01/02 00:29:07;;;;;;;65.50;31.73;;;;;;;;;;5032434;28;20183;-83
2021/01/02 00:31:44;;;;;;;75.03;32.17;;;;;;;;;;5032929;28;20172;-84
2021/01/02 00:34:22;;;;;;;63.00;31.33;;;;;;;;;;5032124;28;20266;-84
2021/01/02 00:37:04;;;;;;;76.90;34.87;;;;;;;;;;5032666;28;20225;-84
2021/01/02 00:39:39;;;;;;;68.40;33.33;;;;;;;;;;5031874;28;20215;-84
2021/01/02 00:42:04;;;;;;;79.00;34.97;;;;;;;;;;5032225;28;20181;-83
2021/01/02 00:44:31;;;;;;;75.33;33.67;;;;;;;;;;5032505;28;20492;-83
2021/01/02 00:46:57;;;;;;;79.03;33.23;;;;;;;;;;5031898;28;20168;-84
2021/01/02 00:49:22;;;;;;;71.63;35.23;;;;;;;;;;5032260;28;20176;-84
2021/01/02 00:51:55;;;;;;;73.90;35.30;;;;;;;;;;5032203;28;20638;-84
2021/01/02 00:54:43;;;;;;;81.10;39.00;;;;;;;;;;5032054;28;20165;-83
2021/01/02 00:57:15;;;;;;;98.13;43.37;;;;;;;;;;5025690;28;20293;-83
2021/01/02 00:59:43;;;;;;;101.03;47.33;;;;;;;;;;5031675;28;20279;-84
2021/01/02 01:02:11;;;;;;;114.27;50.33;;;;;;;;;;5032013;28;20168;-85
2021/01/02 01:04:40;;;;;;;93.23;45.13;;;;;;;;;;5066500;28;20665;-83
2021/01/02 01:07:08;;;;;;;83.53;39.00;;;;;;;;;;5071778;28;20179;-83
2021/01/02 01:09:36;;;;;;;95.13;42.57;;;;;;;;;;5053737;28;20547;-84
2021/01/02 01:12:01;;;;;;;89.57;40.33;;;;;;;;;;5071896;28;20175;-83
2021/01/02 01:14:29;;;;;;;77.17;37.57;;;;;;;;;;5072273;28;20228;-84
2021/01/02 01:16:57;;;;;;;83.73;37.43;;;;;;;;;;5071688;28;20175;-84
2021/01/02 01:19:25;;;;;;;82.00;35.13;;;;;;;;;;5071976;28;20207;-84
2021/01/02 01:21:51;;;;;;;69.10;32.63;;;;;;;;;;5072268;28;20175;-84
2021/01/02 01:24:37;;;;;;;72.00;34.17;;;;;;;;;;5072204;28;20512;-84
2021/01/02 01:27:22;;;;;;;62.47;31.77;;;;;;;;;;5071211;28;20183;-84
2021/01/02 01:29:47;;;;;;;58.67;30.87;;;;;;;;;;5072828;28;20169;-84
2021/01/02 01:32:14;;;;;;;58.20;29.37;;;;;;;;;;5072471;28;20262;-84
2021/01/02 01:34:44;;;;;;;57.53;28.73;;;;;;;;;;5072701;28;20190;-84
2021/01/02 01:37:11;;;;;;;53.13;28.17;;;;;;;;;;5072703;28;20233;-84
2021/01/02 01:39:39;;;;;;;48.93;26.07;;;;;;;;;;5072183;28;20245;-84
2021/01/02 01:42:05;;;;;;;49.83;26.30;;;;;;;;;;5072000;28;20178;-83
2021/01/02 01:44:43;;;;;;;47.63;25.17;;;;;;;;;;5072387;28;20205;-84
2021/01/02 01:47:22;;;;;;;45.93;24.37;;;;;;;;;;5072590;28;20171;-83
2021/01/02 01:50:10;;;;;;;43.30;24.53;;;;;;;;;;5072001;28;20183;-84
2021/01/02 01:52:51;;;;;;;49.93;26.97;;;;;;;;;;5058302;28;20187;-84
2021/01/02 01:55:25;;;;;;;47.03;24.13;;;;;;;;;;5072294;28;20167;-84
2021/01/02 01:57:51;;;;;;;47.17;24.40;;;;;;;;;;5072304;28;20199;-84
2021/01/02 02:00:17;;;;;;;44.50;23.47;;;;;;;;;;5071906;28;20647;-84
2021/01/02 02:02:45;;;;;;;45.37;24.87;;;;;;;;;;5072202;28;20179;-83
2021/01/02 02:05:12;;;;;;;47.83;25.13;;;;;;;;;;5072487;28;20160;-83
2021/01/02 02:07:43;;;;;;;42.60;22.13;;;;;;;;;;5071841;28;20172;-83
2021/01/02 02:10:09;;;;;;;49.50;24.53;;;;;;;;;;5071781;28;20191;-83
2021/01/02 02:12:35;;;;;;;48.83;26.10;;;;;;;;;;5072021;28;20171;-83
2021/01/02 02:15:00;;;;;;;47.67;24.83;;;;;;;;;;5071291;28;20569;-83
2021/01/02 02:17:27;;;;;;;45.70;24.87;;;;;;;;;;5072058;28;20174;-83
2021/01/02 02:19:52;;;;;;;49.97;26.53;;;;;;;;;;5071973;28;20552;-83
2021/01/02 02:22:20;;;;;;;52.77;27.33;;;;;;;;;;5071713;28;20175;-83
2021/01/02 02:24:48;;;;;;;50.53;27.40;;;;;;;;;;5072060;28;20173;-84
2021/01/02 02:27:14;;;;;;;53.73;28.73;;;;;;;;;;5072126;28;20258;-83
2021/01/02 02:29:50;;;;;;;55.47;28.20;;;;;;;;;;5073850;28;20182;-83
2021/01/02 02:32:17;;;;;;;55.00;28.47;;;;;;;;;;5075577;28;20365;-83
2021/01/02 02:34:43;;;;;;;49.73;25.97;;;;;;;;;;5075493;28;20541;-83
2021/01/02 02:37:08;;;;;;;50.93;26.87;;;;;;;;;;5075198;28;20167;-83
2021/01/02 02:39:33;;;;;;;51.03;26.50;;;;;;;;;;5075417;28;20223;-83
2021/01/02 02:42:00;;;;;;;45.37;25.77;;;;;;;;;;5075394;28;20179;-83
2021/01/02 02:44:28;;;;;;;52.00;27.03;;;;;;;;;;5074956;28;20229;-83
2021/01/02 02:46:57;;;;;;;52.30;26.67;;;;;;;;;;5075274;28;20171;-83
2021/01/02 02:49:23;;;;;;;53.67;27.80;;;;;;;;;;5075020;28;20593;-83
2021/01/02 02:51:54;;;;;;;55.57;29.40;;;;;;;;;;5075422;28;20179;-83
2021/01/02 02:54:21;;;;;;;55.53;28.33;;;;;;;;;;5075108;28;20198;-83
2021/01/02 02:56:50;;;;;;;55.97;27.73;;;;;;;;;;5075085;28;20179;-83
2021/01/02 02:59:15;;;;;;;49.60;26.33;;;;;;;;;;5074978;28;20205;-83
2021/01/02 03:01:40;;;;;;;46.97;25.07;;;;;;;;;;5075079;28;20175;-83
2021/01/02 03:04:06;;;;;;;46.20;23.47;;;;;;;;;;5074501;28;20223;-83
2021/01/02 03:06:32;;;;;;;46.37;25.03;;;;;;;;;;5074925;28;20175;-83
2021/01/02 03:08:57;;;;;;;47.93;26.30;;;;;;;;;;5074642;28;20564;-84
2021/01/02 03:11:26;;;;;;;53.73;27.33;;;;;;;;;;5074853;28;20638;-84
2021/01/02 03:13:52;;;;;;;52.47;28.40;;;;;;;;;;5074862;28;20182;-83
2021/01/02 03:16:17;;;;;;;52.30;27.67;;;;;;;;;;5074772;28;20171;-83
2021/01/02 03:18:43;;;;;;;76.50;37.17;;;;;;;;;;5074595;28;20240;-83
2021/01/02 03:21:08;;;;;;;61.37;30.27;;;;;;;;;;5074377;28;20183;-83
2021/01/02 03:23:46;;;;;;;55.50;28.37;;;;;;;;;;5074377;28;20224;-84
2021/01/02 03:26:11;;;;;;;55.03;27.50;;;;;;;;;;5074621;28;20530;-84
2021/01/02 03:28:36;;;;;;;52.53;27.33;;;;;;;;;;5074566;28;20172;-84
2021/01/02 03:31:02;;;;;;;50.80;26.13;;;;;;;;;;5074175;28;20174;-84
2021/01/02 03:33:28;;;;;;;57.53;27.50;;;;;;;;;;5074552;28;20172;-84
2021/01/02 03:35:57;;;;;;;45.47;26.03;;;;;;;;;;5074315;28;20568;-84
2021/01/02 03:38:23;;;;;;;45.90;24.70;;;;;;;;;;5074100;28;20199;-84
2021/01/02 03:40:48;;;;;;;51.53;26.27;;;;;;;;;;5073781;28;20206;-84
2021/01/02 03:43:13;;;;;;;55.70;28.13;;;;;;;;;;5073916;28;20278;-84
2021/01/02 03:45:39;;;;;;;54.53;27.87;;;;;;;;;;5074245;28;20618;-83
2021/01/02 03:48:04;;;;;;;53.70;26.83;;;;;;;;;;5073993;28;20522;-83
2021/01/02 03:50:29;;;;;;;53.63;27.50;;;;;;;;;;5056270;28;20171;-83
2021/01/02 03:52:55;;;;;;;51.50;26.33;;;;;;;;;;5073878;28;20526;-83
2021/01/02 03:55:20;;;;;;;50.63;27.37;;;;;;;;;;5074580;28;20195;-83
2021/01/02 03:57:45;;;;;;;52.53;28.00;;;;;;;;;;5073727;28;20254;-83
2021/01/02 04:00:12;;;;;;;51.10;28.20;;;;;;;;;;5073903;28;20198;-83
2021/01/02 04:02:37;;;;;;;52.93;28.03;;;;;;;;;;5073551;28;20179;-83
2021/01/02 04:05:04;;;;;;;68.23;33.27;;;;;;;;;;5073601;28;20510;-83
2021/01/02 04:07:29;;;;;;;56.20;29.33;;;;;;;;;;5073796;28;20250;-83
2021/01/02 04:09:55;;;;;;;70.23;34.47;;;;;;;;;;5074052;28;20287;-84
2021/01/02 04:12:20;;;;;;;69.50;36.63;;;;;;;;;;5073753;28;20183;-83
2021/01/02 04:14:46;;;;;;;57.27;29.23;;;;;;;;;;5073650;28;20176;-83
2021/01/02 04:17:11;;;;;;;57.50;28.07;;;;;;;;;;5073510;28;20164;-83
2021/01/02 04:19:36;;;;;;;63.10;34.10;;;;;;;;;;5073147;28;20199;-83
2021/01/02 04:22:02;;;;;;;86.57;44.13;;;;;;;;;;5073182;28;20179;-83
2021/01/02 04:24:27;;;;;;;121.97;54.53;;;;;;;;;;5073236;28;20175;-84
2021/01/02 04:26:59;;;;;;;110.27;50.57;;;;;;;;;;5073717;28;20172;-84
2021/01/02 04:29:25;;;;;;;175.47;76.70;;;;;;;;;;5073727;28;20182;-83
2021/01/02 04:31:53;;;;;;;143.93;62.50;;;;;;;;;;5073227;28;20176;-83
2021/01/02 04:34:18;;;;;;;76.90;39.00;;;;;;;;;;5072829;28;20178;-83
2021/01/02 04:36:47;;;;;;;152.13;67.60;;;;;;;;;;5072842;28;20163;-83
2021/01/02 04:39:12;;;;;;;58.43;30.60;;;;;;;;;;5073094;28;20645;-83
2021/01/02 04:41:37;;;;;;;55.93;29.80;;;;;;;;;;5073210;28;20182;-82
2021/01/02 04:44:03;;;;;;;83.83;40.50;;;;;;;;;;5072754;28;20168;-83
2021/01/02 04:46:29;;;;;;;70.77;35.40;;;;;;;;;;5073313;28;20178;-83
2021/01/02 04:48:54;;;;;;;63.87;31.90;;;;;;;;;;5072986;28;20177;-83
2021/01/02 04:51:19;;;;;;;64.03;32.60;;;;;;;;;;5072903;28;20163;-83
2021/01/02 04:53:45;;;;;;;56.50;29.97;;;;;;;;;;5072283;28;20526;-83
2021/01/02 04:56:10;;;;;;;60.17;30.23;;;;;;;;;;5072570;28;20671;-83
2021/01/02 04:58:42;;;;;;;59.63;29.63;;;;;;;;;;5072430;28;20653;-83
2021/01/02 05:01:08;;;;;;;66.73;32.83;;;;;;;;;;5072586;28;20692;-83
2021/01/02 05:03:34;;;;;;;57.73;28.27;;;;;;;;;;5072397;28;20250;-83
2021/01/02 05:06:00;;;;;;;87.10;43.67;;;;;;;;;;5072764;28;20619;-83
2021/01/02 05:08:26;;;;;;;93.67;48.87;;;;;;;;;;5073020;28;20254;-83
2021/01/02 05:11:01;;;;;;;71.80;35.63;;;;;;;;;;5072535;28;20274;-83
2021/01/02 05:13:30;;;;;;;84.37;40.17;;;;;;;;;;5072600;28;20171;-83
2021/01/02 05:15:56;;;;;;;89.57;43.07;;;;;;;;;;5072843;28;20175;-83
2021/01/02 05:18:22;;;;;;;94.03;41.37;;;;;;;;;;5072571;28;20224;-83
2021/01/02 05:20:48;;;;;;;54.43;25.17;;;;;;;;;;5072618;28;20206;-83
2021/01/02 05:23:13;;;;;;;84.83;33.77;;;;;;;;;;5072484;28;20191;-83
2021/01/02 05:25:38;;;;;;;91.97;37.77;;;;;;;;;;5072307;28;20574;-83
2021/01/02 05:28:04;;;;;;;78.93;37.97;;;;;;;;;;5072221;28;20190;-83
2021/01/02 05:30:30;;;;;;;142.53;59.40;;;;;;;;;;5072467;28;20175;-83
2021/01/02 05:32:59;;;;;;;87.77;34.77;;;;;;;;;;5072614;28;20178;-83
2021/01/02 05:35:26;;;;;;;117.70;47.03;;;;;;;;;;5072289;28;20167;-83
2021/01/02 05:37:51;;;;;;;68.20;25.70;;;;;;;;;;5072490;28;21001;-83
2021/01/02 05:40:32;;;;;;;71.30;27.57;;;;;;;;;;5072062;28;20198;-83
2021/01/02 05:42:58;;;;;;;80.90;26.80;;;;;;;;;;5072667;28;20181;-82
2021/01/02 05:45:26;;;;;;;76.50;32.03;;;;;;;;;;5072373;28;20258;-83
2021/01/02 05:47:51;;;;;;;74.57;32.13;;;;;;;;;;5072346;28;20176;-83
2021/01/02 05:50:19;;;;;;;93.93;27.50;;;;;;;;;;5072356;28;20171;-83
2021/01/02 05:52:48;;;;;;;97.03;41.13;;;;;;;;;;5072375;28;20570;-83
2021/01/02 05:55:27;;;;;;;85.00;35.60;;;;;;;;;;5072499;28;20185;-83
2021/01/02 05:57:52;;;;;;;106.63;39.90;;;;;;;;;;5072368;28;20633;-83
2021/01/02 06:00:19;;;;;;;100.40;40.70;;;;;;;;;;5072050;28;20244;-83
2021/01/02 06:02:44;;;;;;;83.40;35.23;;;;;;;;;;5053988;28;20502;-83
2021/01/02 06:05:10;;;;;;;104.20;43.37;;;;;;;;;;5075226;28;20163;-83
2021/01/02 06:07:39;;;;;;;102.97;45.13;;;;;;;;;;5075803;28;20175;-83
2021/01/02 06:10:05;;;;;;;104.33;41.50;;;;;;;;;;5075652;28;20549;-84
2021/01/02 06:12:30;;;;;;;85.30;33.80;;;;;;;;;;5058270;28;20553;-83
2021/01/02 06:15:00;;;;;;;69.17;27.90;;;;;;;;;;5076113;28;20289;-83
2021/01/02 06:17:27;;;;;;;94.33;34.30;;;;;;;;;;5075887;28;20171;-83
2021/01/02 06:19:52;;;;;;;69.87;29.93;;;;;;;;;;5075536;28;20327;-83
2021/01/02 06:22:18;;;;;;;57.73;25.90;;;;;;;;;;5075792;28;20266;-83
2021/01/02 06:24:43;;;;;;;57.10;27.30;;;;;;;;;;5057771;28;20174;-83
2021/01/02 06:27:09;;;;;;;66.40;30.03;;;;;;;;;;5075446;28;20170;-83
2021/01/02 06:29:34;;;;;;;92.10;40.97;;;;;;;;;;5076236;28;20182;-83
2021/01/02 06:32:01;;;;;;;77.37;35.43;;;;;;;;;;5075307;28;20163;-83
2021/01/02 06:34:26;;;;;;;67.37;30.90;;;;;;;;;;5075262;28;20625;-83
2021/01/02 06:36:55;;;;;;;79.90;39.13;;;;;;;;;;5075139;28;20262;-83
2021/01/02 06:39:22;;;;;;;72.60;37.57;;;;;;;;;;5075076;28;20252;-83
2021/01/02 06:41:48;;;;;;;73.70;37.53;;;;;;;;;;5075432;28;20637;-83
2021/01/02 06:44:40;;;;;;;78.63;39.87;;;;;;;;;;5075411;28;20171;-83
2021/01/02 06:47:17;;;;;;;81.27;40.90;;;;;;;;;;5070419;28;20184;-83
2021/01/02 06:49:43;;;;;;;134.43;66.60;;;;;;;;;;5075014;28;20203;-83
2021/01/02 06:52:10;;;;;;;78.87;38.07;;;;;;;;;;5074933;28;20193;-83
2021/01/02 06:54:35;;;;;;;81.20;38.40;;;;;;;;;;5075400;28;20564;-82
2021/01/02 06:57:04;;;;;;;83.23;39.97;;;;;;;;;;5075411;28;20175;-83
2021/01/02 06:59:29;;;;;;;82.03;41.83;;;;;;;;;;5074823;28;20256;-83
2021/01/02 07:01:55;;;;;;;68.67;34.63;;;;;;;;;;5074538;28;20556;-83
2021/01/02 07:04:37;;;;;;;68.60;36.03;;;;;;;;;;5074857;28;20249;-83
2021/01/02 07:07:03;;;;;;;64.57;33.63;;;;;;;;;;5074862;28;20256;-83
2021/01/02 07:09:29;;;;;;;53.87;29.23;;;;;;;;;;5074755;28;20175;-83
2021/01/02 07:12:08;;;;;;;65.03;33.57;;;;;;;;;;5074917;28;20216;-83
2021/01/02 07:14:33;;;;;;;58.73;32.53;;;;;;;;;;5074730;28;20171;-83
2021/01/02 07:17:06;;;;;;;69.23;36.40;;;;;;;;;;5073829;28;21219;-83
2021/01/02 07:19:35;;;;;;;48.07;27.43;;;;;;;;;;5074193;28;20505;-83
2021/01/02 07:22:02;;;;;;;51.63;28.87;;;;;;;;;;5074478;28;20168;-83
2021/01/02 07:24:36;;;;;;;89.00;50.03;;;;;;;;;;5064136;28;20186;-83
2021/01/02 07:27:03;;;;;;;135.43;66.50;;;;;;;;;;5062455;28;20545;-83
2021/01/02 07:29:29;;;;;;;52.80;30.73;;;;;;;;;;5061929;28;20171;-83
2021/01/02 07:32:11;;;;;;;98.37;50.83;;;;;;;;;;5064142;28;20171;-83
2021/01/02 07:34:37;;;;;;;75.30;43.13;;;;;;;;;;5063319;28;20263;-82
2021/01/02 07:37:04;;;;;;;64.23;35.60;;;;;;;;;;5063330;28;20206;-82
2021/01/02 07:39:29;;;;;;;65.80;38.67;;;;;;;;;;5063508;28;20665;-84
2021/01/02 07:41:55;;;;;;;60.07;33.87;;;;;;;;;;5062116;28;20171;-83
2021/01/02 07:44:21;;;;;;;80.73;46.80;;;;;;;;;;5063262;28;20236;-83
2021/01/02 07:46:46;;;;;;;60.13;34.63;;;;;;;;;;5063217;28;20271;-83
2021/01/02 07:49:15;;;;;;;62.60;34.97;;;;;;;;;;5061866;28;20174;-83
2021/01/02 07:51:40;;;;;;;93.97;52.57;;;;;;;;;;5063031;28;20580;-84
2021/01/02 07:54:06;;;;;;;70.63;38.50;;;;;;;;;;5063048;28;20176;-83
2021/01/02 07:56:35;;;;;;;54.40;32.20;;;;;;;;;;5061423;28;20179;-83
2021/01/02 07:59:19;;;;;;;55.27;31.00;;;;;;;;;;5061879;28;20200;-83
2021/01/02 08:01:48;;;;;;;52.00;30.23;;;;;;;;;;5062486;28;20183;-83
2021/01/02 08:04:14;;;;;;;52.13;30.47;;;;;;;;;;5073271;28;20223;-83
2021/01/02 08:06:43;;;;;;;92.80;47.60;;;;;;;;;;5074311;28;20171;-83
2021/01/02 08:09:09;;;;;;;168.70;85.40;;;;;;;;;;5073801;28;20179;-82
2021/01/02 08:11:34;;;;;;;365.80;182.37;;;;;;;;;;5054595;28;20336;-84
2021/01/02 08:14:00;;;;;;;371.60;185.83;;;;;;;;;;5060835;28;20570;-84
2021/01/02 08:16:25;;;;;;;279.73;136.97;;;;;;;;;;5090209;28;20193;-82
2021/01/02 08:19:03;;;;;;;205.30;111.67;;;;;;;;;;5094873;28;20201;-83
2021/01/02 08:21:29;;;;;;;105.87;55.63;;;;;;;;;;5095298;28;20204;-82
2021/01/02 08:23:54;;;;;;;100.93;57.33;;;;;;;;;;5094636;28;20597;-82
2021/01/02 08:26:21;;;;;;;77.03;47.93;;;;;;;;;;5094751;28;20175;-82
2021/01/02 08:28:47;;;;;;;116.53;70.77;;;;;;;;;;5072846;28;20568;-82
2021/01/02 08:31:14;;;;;;;129.57;82.33;;;;;;;;;;5074335;28;20171;-83
2021/01/02 08:33:40;;;;;;;87.53;52.80;;;;;;;;;;5073988;28;20618;-83
2021/01/02 08:36:12;;;;;;;83.97;50.80;;;;;;;;;;5072856;28;20602;-83
2021/01/02 08:38:37;;;;;;;109.33;62.20;;;;;;;;;;5073838;28;20199;-83
2021/01/02 08:41:02;;;;;;;80.97;46.70;;;;;;;;;;5073962;28;20641;-83
2021/01/02 08:43:28;;;;;;;73.90;43.27;;;;;;;;;;5073926;28;20175;-82
2021/01/02 08:45:59;;;;;;;123.20;66.27;;;;;;;;;;5073951;28;20167;-82
2021/01/02 08:48:25;;;;;;;89.13;51.20;;;;;;;;;;5073904;28;20551;-82
2021/01/02 08:50:50;;;;;;;95.33;52.93;;;;;;;;;;5074182;28;20167;-82
2021/01/02 08:53:25;;;;;;;60.47;35.33;;;;;;;;;;5074175;28;20258;-83
2021/01/02 08:55:50;;;;;;;62.87;36.20;;;;;;;;;;5074040;28;20215;-83
2021/01/02 08:58:28;;;;;;;59.40;34.90;;;;;;;;;;5073542;28;20179;-82
2021/01/02 09:00:56;;;;;;;56.40;32.83;;;;;;;;;;5074579;28;20569;-83
2021/01/02 09:03:22;;;;;;;78.27;46.17;;;;;;;;;;5073952;28;20312;-83
2021/01/02 09:05:48;;;;;;;67.57;37.27;;;;;;;;;;5074228;28;20171;-83
2021/01/02 09:08:17;;;;;;;91.90;50.23;;;;;;;;;;5073865;28;20178;-82
2021/01/02 09:10:43;;;;;;;138.43;69.00;;;;;;;;;;5073769;28;20186;-84
2021/01/02 09:13:22;;;;;;;84.53;43.30;;;;;;;;;;5073616;28;20588;-83
2021/01/02 09:15:56;;;;;;;67.97;37.10;;;;;;;;;;5073907;28;20190;-83
2021/01/02 09:18:27;;;;;;;59.97;33.07;;;;;;;;;;5073568;28;20529;-82
2021/01/02 09:20:53;;;;;;;108.07;58.23;;;;;;;;;;5073438;28;20175;-83
2021/01/02 09:23:31;;;;;;;80.47;45.40;;;;;;;;;;5073731;28;20170;-83
2021/01/02 09:25:56;;;;;;;89.90;50.17;;;;;;;;;;5073988;28;20167;-83
2021/01/02 09:28:21;;;;;;;99.57;58.67;;;;;;;;;;5073397;28;20181;-83
2021/01/02 09:30:48;;;;;;;77.20;44.47;;;;;;;;;;5072270;28;20209;-83
2021/01/02 09:33:13;;;;;;;76.73;47.10;;;;;;;;;;5073519;28;20600;-82
2021/01/02 09:35:39;;;;;;;71.57;42.13;;;;;;;;;;5073643;28;20274;-83
2021/01/02 09:38:05;;;;;;;103.97;61.43;;;;;;;;;;5073606;28;20633;-82
2021/01/02 09:40:31;;;;;;;82.03;47.07;;;;;;;;;;5076831;28;20205;-83
2021/01/02 09:42:57;;;;;;;93.27;49.80;;;;;;;;;;5059760;28;20183;-83
2021/01/02 09:45:22;;;;;;;93.40;48.83;;;;;;;;;;5077168;28;20183;-83
2021/01/02 09:47:47;;;;;;;103.67;53.23;;;;;;;;;;5077884;28;20221;-83
2021/01/02 09:50:13;;;;;;;121.07;60.70;;;;;;;;;;5077537;28;20203;-83
2021/01/02 09:52:38;;;;;;;96.47;50.10;;;;;;;;;;5074659;28;20540;-83
2021/01/02 09:55:03;;;;;;;102.53;54.50;;;;;;;;;;5054936;28;20274;-83
2021/01/02 09:57:29;;;;;;;79.50;44.30;;;;;;;;;;5100397;28;20184;-83
2021/01/02 09:59:54;;;;;;;95.53;53.17;;;;;;;;;;5117841;28;20209;-82
2021/01/02 10:02:19;;;;;;;76.47;44.70;;;;;;;;;;5112890;28;20287;-82
2021/01/02 10:04:46;;;;;;;79.10;44.27;;;;;;;;;;5098014;28;20229;-83
2021/01/02 10:07:11;;;;;;;56.10;34.70;;;;;;;;;;5097838;28;20181;-83
2021/01/02 10:09:40;;;;;;;55.67;33.53;;;;;;;;;;5097028;28;20526;-83
2021/01/02 10:12:06;;;;;;;60.57;35.47;;;;;;;;;;5098025;28;20176;-83
2021/01/02 10:14:31;;;;;;;90.53;48.30;;;;;;;;;;5097936;28;20519;-83
2021/01/02 10:16:57;;;;;;;90.87;49.70;;;;;;;;;;5097342;28;20171;-82
2021/01/02 10:19:22;;;;;;;72.73;43.87;;;;;;;;;;5097189;28;20200;-83
2021/01/02 10:21:48;;;;;;;67.40;40.47;;;;;;;;;;5070305;28;20175;-83
2021/01/02 10:24:13;;;;;;;75.90;44.83;;;;;;;;;;5076402;28;20172;-83
2021/01/02 10:26:38;;;;;;;72.50;40.87;;;;;;;;;;5076596;28;20167;-82
2021/01/02 10:29:04;;;;;;;93.77;51.53;;;;;;;;;;5076687;28;20696;-83
2021/01/02 10:31:30;;;;;;;98.77;54.47;;;;;;;;;;5076670;28;20220;-80
2021/01/02 10:33:55;;;;;;;101.47;55.83;;;;;;;;;;5077006;28;20205;-83
2021/01/02 10:36:21;;;;;;;100.40;56.90;;;;;;;;;;5076483;28;20182;-84
2021/01/02 10:38:46;;;;;;;96.03;54.60;;;;;;;;;;5075235;28;20191;-83
2021/01/02 10:41:13;;;;;;;85.00;50.47;;;;;;;;;;5054063;28;20171;-84
2021/01/02 10:43:38;;;;;;;84.63;48.93;;;;;;;;;;5063700;28;20178;-84
2021/01/02 10:46:06;;;;;;;93.67;54.77;;;;;;;;;;5047894;28;20172;-83
2021/01/02 10:48:31;;;;;;;98.57;55.70;;;;;;;;;;5064412;28;20182;-84
2021/01/02 10:50:56;;;;;;;87.83;50.20;;;;;;;;;;5063033;28;20171;-84
2021/01/02 10:53:21;;;;;;;102.73;54.17;;;;;;;;;;5063501;28;20690;-84
2021/01/02 10:55:47;;;;;;;117.47;63.67;;;;;;;;;;5064976;28;20518;-83
2021/01/02 10:58:14;;;;;;;171.83;89.93;;;;;;;;;;5064170;28;20179;-83
2021/01/02 11:00:39;;;;;;;205.23;111.83;;;;;;;;;;5065680;28;20203;-84
2021/01/02 11:03:05;;;;;;;157.80;84.53;;;;;;;;;;5057511;28;20227;-84
2021/01/02 11:05:30;;;;;;;144.17;87.47;;;;;;;;;;5036770;28;20207;-81
2021/01/02 11:07:55;;;;;;;82.97;51.33;;;;;;;;;;5054811;28;20259;-81
2021/01/02 11:10:22;;;;;;;67.13;43.87;;;;;;;;;;5054567;28;20333;-81
2021/01/02 11:12:48;;;;;;;64.10;40.17;;;;;;;;;;5036674;28;20310;-80
2021/01/02 11:15:13;;;;;;;60.20;38.67;;;;;;;;;;5069345;28;20651;-81
2021/01/02 11:17:39;;;;;;;62.27;38.80;;;;;;;;;;5073368;28;20174;-83
2021/01/02 11:20:06;;;;;;;68.20;43.63;;;;;;;;;;5062525;28;20211;-83
2021/01/02 11:22:31;;;;;;;81.43;49.83;;;;;;;;;;5070608;28;20262;-84
2021/01/02 11:24:56;;;;;;;74.77;48.23;;;;;;;;;;5070858;28;20288;-84
2021/01/02 11:27:22;;;;;;;73.67;45.73;;;;;;;;;;5086656;28;20179;-83
2021/01/02 11:29:47;;;;;;;87.57;55.83;;;;;;;;;;5073819;28;20174;-83
2021/01/02 11:32:12;;;;;;;90.23;55.83;;;;;;;;;;5073419;28;20175;-83
2021/01/02 11:34:38;;;;;;;87.70;54.43;;;;;;;;;;5073172;28;20177;-82
2021/01/02 11:37:04;;;;;;;142.30;79.53;;;;;;;;;;5070015;28;20637;-83
2021/01/02 11:39:30;;;;;;;120.93;66.20;;;;;;;;;;5093575;28;20217;-83
2021/01/02 11:41:56;;;;;;;136.80;69.47;;;;;;;;;;5086641;28;20935;-84
2021/01/02 11:44:22;;;;;;;179.87;85.73;;;;;;;;;;5062779;28;20266;-84
2021/01/02 11:46:49;;;;;;;126.83;70.33;;;;;;;;;;5063715;28;20259;-83
2021/01/02 11:49:17;;;;;;;100.03;57.60;;;;;;;;;;5061393;28;20179;-84
2021/01/02 11:51:46;;;;;;;145.37;85.40;;;;;;;;;;5062535;28;20221;-84
2021/01/02 11:54:11;;;;;;;210.27;107.07;;;;;;;;;;5062091;28;20184;-84
2021/01/02 11:56:37;;;;;;;202.20;108.63;;;;;;;;;;5062793;28;20225;-84
2021/01/02 11:59:02;;;;;;;188.07;102.00;;;;;;;;;;5061987;28;20203;-83
2021/01/02 12:01:38;;;;;;;197.03;103.20;;;;;;;;;;5060805;28;20533;-83
2021/01/02 12:04:04;;;;;;;150.03;80.80;;;;;;;;;;5062225;28;20325;-84
2021/01/02 12:06:29;;;;;;;115.17;68.23;;;;;;;;;;5060995;28;20254;-84
2021/01/02 12:08:55;;;;;;;130.60;77.10;;;;;;;;;;5060882;28;20238;-84
2021/01/02 12:11:31;;;;;;;182.87;108.50;;;;;;;;;;5062194;28;20194;-84
2021/01/02 12:13:57;;;;;;;186.43;117.37;;;;;;;;;;5061415;28;20194;-84
2021/01/02 12:16:42;;;;;;;160.63;93.47;;;;;;;;;;5062195;28;20622;-84
2021/01/02 12:19:12;;;;;;;149.07;82.60;;;;;;;;;;5062407;28;20562;-81
2021/01/02 12:21:37;;;;;;;130.47;75.10;;;;;;;;;;5057170;28;20175;-82
2021/01/02 12:24:03;;;;;;;158.30;89.80;;;;;;;;;;5052207;28;20221;-80
2021/01/02 12:26:28;;;;;;;165.27;90.30;;;;;;;;;;5052267;28;20172;-81
2021/01/02 12:28:54;;;;;;;159.67;91.43;;;;;;;;;;5052428;28;20180;-81
2021/01/02 12:31:23;;;;;;;104.87;62.70;;;;;;;;;;5052213;28;20176;-81
2021/01/02 12:33:48;;;;;;;124.40;76.97;;;;;;;;;;5053709;28;20186;-81
2021/01/02 12:36:17;;;;;;;127.43;75.57;;;;;;;;;;5071346;28;20187;-81
2021/01/02 12:38:43;;;;;;;164.40;88.20;;;;;;;;;;5071978;28;20225;-81
2021/01/02 12:41:15;;;;;;;150.03;77.47;;;;;;;;;;5072125;28;20638;-81
2021/01/02 12:43:41;;;;;;;152.07;76.87;;;;;;;;;;5071715;28;20167;-81
2021/01/02 12:46:06;;;;;;;114.47;60.43;;;;;;;;;;5072087;28;20167;-81
2021/01/02 12:48:32;;;;;;;135.30;78.67;;;;;;;;;;5072228;28;20491;-81
2021/01/02 12:50:57;;;;;;;144.37;73.87;;;;;;;;;;5071708;28;20175;-81
2021/01/02 12:53:22;;;;;;;155.23;82.43;;;;;;;;;;5071488;28;20175;-81
2021/01/02 12:55:48;;;;;;;149.07;84.60;;;;;;;;;;5071806;28;20170;-81
2021/01/02 12:58:13;;;;;;;158.37;88.13;;;;;;;;;;5071961;28;20203;-81
2021/01/02 13:00:38;;;;;;;129.83;70.70;;;;;;;;;;5071280;28;20553;-82
2021/01/02 13:03:04;;;;;;;131.57;74.23;;;;;;;;;;5071329;28;20219;-82
2021/01/02 13:05:29;;;;;;;141.77;80.93;;;;;;;;;;5071429;28;20195;-82
2021/01/02 13:07:55;;;;;;;157.27;84.13;;;;;;;;;;5071724;28;20556;-81
2021/01/02 13:10:20;;;;;;;152.93;90.90;;;;;;;;;;5071287;28;20188;-81
2021/01/02 13:12:46;;;;;;;132.77;73.20;;;;;;;;;;5071359;28;20167;-82
2021/01/02 13:15:11;;;;;;;158.43;87.83;;;;;;;;;;5070924;28;20185;-81
2021/01/02 13:17:36;;;;;;;136.50;79.87;;;;;;;;;;5071879;28;20262;-82
2021/01/02 13:20:02;;;;;;;169.43;96.77;;;;;;;;;;5071274;28;20530;-82
2021/01/02 13:22:27;;;;;;;146.67;84.27;;;;;;;;;;5071899;28;20193;-82
2021/01/02 13:24:52;;;;;;;121.27;67.53;;;;;;;;;;5071118;28;20167;-81
2021/01/02 13:27:18;;;;;;;127.90;71.67;;;;;;;;;;5071383;28;20171;-81
2021/01/02 13:29:49;;;;;;;131.87;73.53;;;;;;;;;;5071433;28;20170;-81
2021/01/02 13:32:15;;;;;;;153.60;88.03;;;;;;;;;;5071442;28;20152;-83
2021/01/02 13:34:40;;;;;;;267.03;120.80;;;;;;;;;;5071063;28;20537;-83
2021/01/02 13:37:07;;;;;;;257.43;114.47;;;;;;;;;;5066939;28;20657;-83
2021/01/02 13:39:33;;;;;;;292.20;127.17;;;;;;;;;;5070998;28;20277;-83
2021/01/02 13:41:58;;;;;;;213.83;106.13;;;;;;;;;;5071312;28;20170;-83
2021/01/02 13:44:25;;;;;;;247.37;103.73;;;;;;;;;;5071437;28;20533;-83
2021/01/02 13:46:56;;;;;;;212.37;93.70;;;;;;;;;;5071432;28;20244;-81
2021/01/02 13:49:21;;;;;;;317.37;139.53;;;;;;;;;;5071092;28;20179;-81
2021/01/02 13:51:46;;;;;;;405.27;156.80;;;;;;;;;;5070869;28;20630;-81
2021/01/02 13:54:12;;;;;;;286.33;116.83;;;;;;;;;;5071291;28;20164;-81
2021/01/02 13:56:37;;;;;;;621.47;249.57;;;;;;;;;;5070915;28;20171;-80
2021/01/02 13:59:02;;;;;;;496.57;216.13;;;;;;;;;;5070747;28;20223;-81
2021/01/02 14:01:34;;;;;;;292.90;128.70;;;;;;;;;;5070821;28;20945;-81
2021/01/02 14:04:00;;;;;;;363.93;149.97;;;;;;;;;;5071062;28;20826;-81
2021/01/02 14:06:25;;;;;;;288.20;123.07;;;;;;;;;;5071035;28;20164;-80
2021/01/02 14:08:50;;;;;;;257.30;118.60;;;;;;;;;;5070643;28;20175;-80
2021/01/02 14:11:18;;;;;;;210.40;104.90;;;;;;;;;;5070946;28;20248;-81
2021/01/02 14:13:44;;;;;;;336.83;140.37;;;;;;;;;;5070804;28;20642;-81